Time;durP1;ratioP1;P1;durP2;ratioP2;P2;SDS_P1;SDS_P2;PMS_P1;PMS_P2;Temp;Humidity;BMP_temperature;BMP_pressure;BME280_temperature;BME280_humidity;BME280_pressure;Samples;Min_cycle;Max_cycle;Signal;HPM_P1;HPM_P2
2022/06/07 05:36:55;;;;;;;;;3.00;3.00;;;;;20.06;61.00;101300.84;2806620;23;46314;-78
2022/06/07 05:38:06;;;;;;;;;3.00;3.00;;;;;20.04;60.93;101292.94;2401114;28;45434;-78
2022/06/07 05:39:24;;;;;;;;;3.00;3.00;;;;;20.01;61.13;101299.34;2405058;28;45359;-78
2022/06/07 05:40:35;;;;;;;;;4.75;3.00;;;;;20.01;60.80;101303.81;2410176;28;45263;-78
2022/06/07 05:41:45;;;;;;;;;3.50;3.50;;;;;20.01;61.13;101298.47;2418650;28;45317;-77
2022/06/07 05:42:56;;;;;;;;;2.75;2.75;;;;;20.04;61.18;101300.09;2418515;28;46555;-78
2022/06/07 05:44:08;;;;;;;;;2.75;2.75;;;;;20.02;61.29;101303.72;2412401;28;45168;-78
2022/06/07 05:45:18;;;;;;;;;7.00;7.00;;;;;20.05;61.17;101305.31;2412102;28;46574;-78
2022/06/07 05:46:28;;;;;;;;;7.00;4.75;;;;;20.06;61.56;101306.16;2400471;28;44844;-78
2022/06/07 05:47:41;;;;;;;;;5.00;4.50;;;;;20.08;61.32;101306.94;2400818;28;45553;-78
2022/06/07 05:48:51;;;;;;;;;5.00;3.50;;;;;20.07;61.08;101308.75;2400976;28;45468;-78
2022/06/07 05:50:04;;;;;;;;;2.50;2.50;;;;;20.10;61.16;101307.72;2400725;28;45407;-78
2022/06/07 05:51:15;;;;;;;;;6.00;3.50;;;;;20.12;60.97;101311.16;2402470;28;44531;-78
2022/06/07 05:52:25;;;;;;;;;3.00;3.00;;;;;20.14;61.05;101311.91;2402007;28;45352;-78
2022/06/07 05:53:36;;;;;;;;;2.25;2.25;;;;;20.14;61.31;101309.25;2402596;28;45249;-78
2022/06/07 05:54:47;;;;;;;;;5.25;5.25;;;;;20.16;60.75;101317.13;2406429;28;45340;-77
2022/06/07 05:56:04;;;;;;;;;3.25;2.00;;;;;20.19;60.78;101312.47;2403220;28;44725;-78
2022/06/07 05:57:14;;;;;;;;;2.50;2.50;;;;;20.18;60.40;101305.41;2402561;28;46150;-78
2022/06/07 05:58:25;;;;;;;;;4.00;3.00;;;;;20.22;60.67;101317.59;2402390;28;44639;-78
2022/06/07 05:59:35;;;;;;;;;2.00;2.00;;;;;20.20;59.96;101310.66;2402541;28;45272;-78
2022/06/07 06:00:46;;;;;;;;;3.25;2.00;;;;;20.18;60.15;101310.75;2411046;28;45440;-78
2022/06/07 06:01:57;;;;;;;;;2.00;2.00;;;;;20.20;60.28;101318.66;2408550;28;45295;-78
2022/06/07 06:03:09;;;;;;;;;4.50;2.00;;;;;20.19;60.31;101314.28;2400944;28;45900;-78
2022/06/07 06:04:20;;;;;;;;;3.00;1.75;;;;;20.19;60.20;101311.59;2402400;28;46346;-79
2022/06/07 06:05:30;;;;;;;;;2.25;2.00;;;;;20.16;60.25;101315.34;2401210;28;45502;-79
2022/06/07 06:06:40;;;;;;;;;3.00;2.00;;;;;20.17;60.42;101316.19;2399717;28;45447;-79
2022/06/07 06:10:48;;;;;;;;;1.50;1.50;;;;;20.18;60.55;101310.75;2401666;28;45514;-79
2022/06/07 06:11:59;;;;;;;;;2.50;1.75;;;;;20.21;60.25;101309.69;2398116;28;47314;-79
2022/06/07 06:13:09;;;;;;;;;3.00;2.00;;;;;20.21;60.17;101315.91;2392344;28;45410;-79
2022/06/07 06:14:20;;;;;;;;;2.75;2.75;;;;;20.23;60.07;101313.13;2388452;28;46709;-79
2022/06/07 06:15:31;;;;;;;;;4.00;4.00;;;;;20.23;60.30;101311.31;2392867;28;45634;-79
2022/06/07 06:16:41;;;;;;;;;3.00;3.00;;;;;20.25;60.31;101313.88;2403317;28;47199;-79
2022/06/07 06:17:52;;;;;;;;;1.75;1.75;;;;;20.29;60.30;101317.19;2409353;28;44844;-79
2022/06/07 06:19:03;;;;;;;;;2.50;2.50;;;;;20.28;59.97;101313.66;2402335;28;48481;-79
2022/06/07 06:20:14;;;;;;;;;1.00;1.00;;;;;20.33;59.80;101321.38;2402891;28;44803;-80
2022/06/07 06:21:32;;;;;;;;;1.75;1.75;;;;;20.33;59.65;101318.72;2401707;28;47401;-79
2022/06/07 06:22:42;;;;;;;;;3.00;2.00;;;;;20.34;59.61;101318.63;2402525;28;45487;-79
2022/06/07 06:23:52;;;;;;;;;2.00;2.00;;;;;20.34;59.61;101320.44;2401908;28;48119;-79
2022/06/07 06:25:05;;;;;;;;;2.00;2.00;;;;;20.33;59.68;101316.91;2400677;28;45427;-80
2022/06/07 06:26:18;;;;;;;;;3.00;2.00;;;;;20.34;59.49;101323.09;2409164;28;47804;-80
2022/06/07 06:27:30;;;;;;;;;2.25;2.25;;;;;20.33;59.26;101324.91;2404057;28;45387;-80
2022/06/07 06:28:44;;;;;;;;;3.00;2.50;;;;;20.34;59.32;101321.28;2402643;28;46461;-80
2022/06/07 06:29:54;;;;;;;;;2.00;1.25;;;;;20.36;59.43;101331.84;2411781;28;45306;-80
2022/06/07 06:31:07;;;;;;;;;5.50;3.50;;;;;20.36;59.24;101329.19;2402001;28;47337;-79
2022/06/07 06:32:18;;;;;;;;;2.00;2.00;;;;;20.36;59.30;101321.19;2401699;28;45431;-80
2022/06/07 06:33:28;;;;;;;;;2.00;1.25;;;;;20.37;58.98;101328.25;2410393;28;48081;-79
2022/06/07 06:34:38;;;;;;;;;2.50;2.50;;;;;20.37;59.05;101328.25;2408586;28;45494;-80
2022/06/07 06:35:53;;;;;;;;;2.75;2.00;;;;;20.35;59.50;101333.66;2398499;28;45490;-76
2022/06/07 06:37:03;;;;;;;;;4.75;2.00;;;;;20.34;59.26;101331.09;2398899;28;45370;-76
2022/06/07 06:38:15;;;;;;;;;2.75;2.75;;;;;20.35;59.18;101335.47;2402845;28;45505;-76
2022/06/07 06:39:26;;;;;;;;;2.00;2.00;;;;;20.34;58.71;101331.97;2402107;28;45696;-76
2022/06/07 06:40:38;;;;;;;;;2.25;2.25;;;;;20.34;59.12;101339.13;2401241;28;48139;-75
2022/06/07 06:41:49;;;;;;;;;1.50;1.50;;;;;20.32;58.85;101338.38;2395980;28;44714;-76
2022/06/07 06:42:59;;;;;;;;;3.25;3.25;;;;;20.31;59.03;101340.16;2406462;28;45283;-76
2022/06/07 06:44:10;;;;;;;;;4.00;3.25;;;;;20.28;59.05;101343.03;2401307;28;45337;-76
2022/06/07 06:45:21;;;;;;;;;4.25;4.25;;;;;20.28;58.95;101339.50;2402044;28;45522;-76
2022/06/07 06:46:35;;;;;;;;;2.00;2.00;;;;;20.27;59.05;101340.47;2399616;28;45383;-75
2022/06/07 06:47:45;;;;;;;;;2.00;2.00;;;;;20.26;59.22;101336.06;2398392;28;47544;-75
2022/06/07 06:48:56;;;;;;;;;2.50;2.50;;;;;20.24;58.81;101339.72;2402610;28;45262;-75
2022/06/07 06:50:07;;;;;;;;;2.25;2.00;;;;;20.24;58.74;101337.06;2400116;28;46188;-75
2022/06/07 06:51:20;;;;;;;;;1.75;1.00;;;;;20.24;58.82;101350.41;2400454;28;44854;-75
2022/06/07 06:52:32;;;;;;;;;3.00;2.00;;;;;20.23;58.70;101340.66;2402191;28;46426;-75
2022/06/07 06:53:43;;;;;;;;;2.00;2.00;;;;;20.24;58.93;101345.06;2402415;28;45455;-75
2022/06/07 06:54:53;;;;;;;;;1.00;1.00;;;;;20.24;58.90;101337.06;2402571;28;45440;-75
2022/06/07 06:56:04;;;;;;;;;1.25;1.25;;;;;20.27;58.92;101343.13;2402939;28;44627;-75
2022/06/07 06:57:15;;;;;;;;;4.25;4.25;;;;;20.27;58.82;101352.00;2402061;28;46394;-75
2022/06/07 06:58:25;;;;;;;;;3.75;2.00;;;;;20.26;58.83;101344.94;2403153;28;45463;-75
2022/06/07 06:59:36;;;;;;;;;1.25;1.25;;;;;20.27;58.55;101346.69;2402556;28;45395;-75
2022/06/07 07:00:47;;;;;;;;;2.00;2.00;;;;;20.26;58.56;101349.41;2400851;28;45258;-75
2022/06/07 07:01:58;;;;;;;;;5.50;4.50;;;;;20.26;59.09;101349.41;2402554;28;45410;-75
2022/06/07 07:03:08;;;;;;;;;4.00;3.25;;;;;20.26;59.14;101344.09;2403083;28;45280;-75
2022/06/07 07:04:20;;;;;;;;;1.00;1.00;;;;;20.27;58.95;101343.13;2399827;28;46100;-75
2022/06/07 07:05:35;;;;;;;;;3.50;2.00;;;;;20.28;58.47;101347.50;2401815;28;45506;-76
2022/06/07 07:06:47;;;;;;;;;2.00;2.00;;;;;20.26;58.71;101349.41;2402284;28;47402;-75
2022/06/07 07:07:58;;;;;;;;;2.00;2.00;;;;;20.26;58.85;101346.75;2402784;28;45518;-75
2022/06/07 07:09:09;;;;;;;;;1.00;1.00;;;;;20.28;59.05;101347.50;2403356;28;46513;-75
2022/06/07 07:10:19;;;;;;;;;2.00;2.00;;;;;20.28;58.57;101352.84;2402185;28;45307;-75
2022/06/07 07:11:35;;;;;;;;;1.50;1.50;;;;;20.28;58.38;101350.19;2395546;28;46989;-75
2022/06/07 07:12:45;;;;;;;;;2.50;2.25;;;;;20.29;58.32;101358.09;2402743;28;45678;-76
2022/06/07 07:13:56;;;;;;;;;5.00;2.00;;;;;20.30;58.91;101350.94;2403716;28;46406;-76
2022/06/07 07:15:13;;;;;;;;;4.00;4.00;;;;;20.35;58.52;101351.47;2403715;28;45228;-76
2022/06/07 07:16:29;;;;;;;;;1.75;1.75;;;;;20.35;58.57;101348.81;2403304;28;45473;-76
2022/06/07 07:17:39;;;;;;;;;4.00;2.00;;;;;20.38;58.56;101353.09;2402405;28;44679;-76
2022/06/07 07:18:50;;;;;;;;;2.50;2.25;;;;;20.40;58.45;101360.06;2393550;28;46103;-76
2022/06/07 07:20:00;;;;;;;;;2.00;2.00;;;;;20.44;58.43;101356.25;2399859;28;45525;-76
2022/06/07 07:21:19;;;;;;;;;2.25;2.25;;;;;20.48;58.01;101364.91;2399598;28;45509;-75
2022/06/07 07:22:29;;;;;;;;;1.00;1.00;;;;;20.49;58.24;101355.94;2410847;28;45378;-75
2022/06/07 07:23:40;;;;;;;;;2.00;1.25;;;;;20.52;58.11;101354.88;2407056;28;46626;-75
2022/06/07 07:24:50;;;;;;;;;1.50;1.50;;;;;20.54;57.94;101361.84;2401580;28;45379;-75
2022/06/07 07:26:07;;;;;;;;;1.25;1.25;;;;;20.55;57.90;101354.66;2395354;28;46989;-75
2022/06/07 07:27:19;;;;;;;;;0.50;0.50;;;;;20.56;58.14;101345.72;2410072;28;44868;-75
2022/06/07 07:28:30;;;;;;;;;2.25;2.25;;;;;20.58;57.90;101352.66;2408944;28;45526;-75
2022/06/07 07:29:40;;;;;;;;;2.00;2.00;;;;;20.60;57.95;101354.34;2411319;28;45281;-75
2022/06/07 07:30:57;;;;;;;;;2.50;0.75;;;;;20.62;57.45;101350.63;2409892;28;47099;-75
2022/06/07 07:32:08;;;;;;;;;1.00;1.00;;;;;20.63;57.69;101347.00;2396641;28;44791;-75
2022/06/07 07:33:18;;;;;;;;;3.00;2.00;;;;;20.62;57.34;101350.63;2401402;28;45559;-75
2022/06/07 07:34:28;;;;;;;;;1.75;1.75;;;;;20.63;57.48;101347.00;2400278;28;45372;-75
2022/06/07 07:35:39;;;;;;;;;2.25;2.25;;;;;20.65;57.75;101354.91;2400479;28;45541;-75
2022/06/07 07:36:53;;;;;;;;;2.00;2.00;;;;;20.67;57.12;101351.19;2402571;28;45375;-76
2022/06/07 07:38:03;;;;;;;;;2.00;0.75;;;;;20.69;57.51;101351.09;2402246;28;45511;-75
2022/06/07 07:39:14;;;;;;;;;2.25;2.25;;;;;20.71;57.58;101345.66;2402359;28;47530;-75
2022/06/07 07:40:25;;;;;;;;;1.00;1.00;;;;;20.73;57.47;101341.91;2398242;28;46362;-75
2022/06/07 07:41:37;;;;;;;;;0.25;0.00;;;;;20.77;57.66;101343.41;2394058;28;45231;-75
2022/06/07 07:42:47;;;;;;;;;1.50;1.00;;;;;;;;2394614;28;47066;-75
2022/06/07 07:44:00;;;;;;;;;1.50;1.25;;;;;20.88;57.62;101350.72;2404781;28;45431;-75
2022/06/07 07:45:12;;;;;;;;;2.00;2.00;;;;;20.89;57.32;101341.72;2404428;28;45388;-75
2022/06/07 07:46:27;;;;;;;;;2.25;1.00;;;;;20.93;57.41;101353.06;2402541;28;45479;-75
2022/06/07 07:47:38;;;;;;;;;2.00;2.00;;;;;20.94;57.27;101338.72;2403005;28;46748;-75
2022/06/07 07:48:48;;;;;;;;;1.00;1.00;;;;;20.96;56.72;101341.31;2402421;28;45797;-75
2022/06/07 07:49:59;;;;;;;;;1.00;1.00;;;;;20.97;56.61;101349.22;2403086;28;46057;-75
2022/06/07 07:51:17;;;;;;;;;3.00;2.00;;;;;21.01;56.88;101342.72;2402615;28;44826;-75
2022/06/07 07:52:28;;;;;;;;;1.00;1.00;;;;;21.02;56.82;101351.59;2402356;28;45683;-75
2022/06/07 07:53:38;;;;;;;;;2.50;1.75;;;;;20.99;56.48;101346.47;2402817;28;45418;-75
2022/06/07 07:54:49;;;;;;;;;3.00;2.00;;;;;20.99;56.45;101347.28;2411335;28;47157;-75
2022/06/07 07:55:59;;;;;;;;;1.00;1.00;;;;;21.00;56.46;101349.06;2408514;28;45367;-76
2022/06/07 07:57:09;;;;;;;;;1.00;1.00;;;;;20.99;56.34;101344.63;2402888;28;45272;-75
2022/06/07 07:58:20;;;;;;;;;2.00;2.00;;;;;20.98;56.56;101339.41;2402370;28;45351;-76
2022/06/07 07:59:30;;;;;;;;;0.25;0.25;;;;;21.00;57.09;101350.84;2402834;28;46306;-75
2022/06/07 08:00:43;;;;;;;;;3.00;2.00;;;;;21.00;56.41;101350.84;2402026;28;45312;-75
2022/06/07 08:01:53;;;;;;;;;2.25;1.00;;;;;20.99;56.31;101344.63;2402399;28;46411;-75
2022/06/07 08:03:03;;;;;;;;;2.00;1.25;;;;;21.03;56.31;101350.66;2402891;28;44761;-75
2022/06/07 08:04:14;;;;;;;;;5.75;3.00;;;;;21.05;56.57;101342.53;2402027;28;46352;-75
2022/06/07 08:05:24;;;;;;;;;2.50;1.00;;;;;21.07;56.30;101344.13;2403076;28;45356;-75
2022/06/07 08:06:36;;;;;;;;;2.00;2.00;;;;;21.11;56.41;101347.47;2402887;28;45447;-75
2022/06/07 08:07:48;;;;;;;;;4.00;2.00;;;;;21.13;56.69;101346.41;2410724;28;45294;-74
2022/06/07 08:09:02;;;;;;;;;1.75;1.00;;;;;21.18;56.48;101351.44;2405672;28;47053;-75
2022/06/07 08:10:13;;;;;;;;;1.00;1.00;;;;;21.21;56.18;101342.34;2397472;28;45976;-75
2022/06/07 08:11:30;;;;;;;;;2.00;2.00;;;;;21.23;56.57;101345.75;2396090;28;48009;-75
2022/06/07 08:12:40;;;;;;;;;4.00;2.00;;;;;21.27;56.57;101344.59;2401284;28;45471;-75
2022/06/07 08:13:52;;;;;;;;;1.50;1.50;;;;;21.32;56.77;101342.44;2401934;28;45320;-75
2022/06/07 08:15:03;;;;;;;;;2.00;1.25;;;;;21.35;56.04;101341.38;2401488;28;45300;-75
2022/06/07 08:16:14;;;;;;;;;1.00;1.00;;;;;21.38;56.51;101341.19;2401987;28;46758;-76
2022/06/07 08:17:26;;;;;;;;;2.00;2.00;;;;;21.40;56.49;101338.38;2401500;28;45308;-75
2022/06/07 08:18:38;;;;;;;;;2.00;2.00;;;;;21.43;56.38;101348.88;2402309;28;46417;-75
2022/06/07 08:19:49;;;;;;;;;1.00;1.00;;;;;21.43;56.15;101346.19;2402376;28;45482;-75
2022/06/07 08:21:06;;;;;;;;;2.00;1.75;;;;;21.44;55.88;101343.41;2402739;28;45398;-75
2022/06/07 08:22:16;;;;;;;;;1.00;1.00;;;;;21.47;55.59;101339.66;2401645;28;45156;-75
2022/06/07 08:23:30;;;;;;;;;1.00;1.00;;;;;21.49;55.40;101340.41;2402845;28;45331;-75
2022/06/07 08:24:40;;;;;;;;;2.00;1.00;;;;;21.48;55.40;101342.22;2401810;28;45352;-75
2022/06/07 08:25:51;;;;;;;;;1.00;1.00;;;;;21.50;55.04;101343.94;2409527;28;48099;-75
2022/06/07 08:27:01;;;;;;;;;1.00;1.00;;;;;21.52;55.37;101347.34;2394178;28;45495;-75
2022/06/07 08:28:11;;;;;;;;;2.00;2.00;;;;;21.54;55.19;101340.06;2401977;28;45360;-75
2022/06/07 08:29:22;;;;;;;;;4.25;4.25;;;;;21.56;54.89;101335.47;2401685;28;45253;-75
2022/06/07 08:30:34;;;;;;;;;1.75;1.25;;;;;21.61;55.29;101340.53;2401133;28;45675;-75
2022/06/07 08:31:46;;;;;;;;;2.00;1.00;;;;;21.63;54.81;101349.28;2401328;28;45513;-75
2022/06/07 08:32:56;;;;;;;;;3.50;2.75;;;;;21.63;54.46;101341.25;2396881;28;46875;-75
2022/06/07 08:38:34;;;;;;;;;0.75;0.75;;;;;21.76;54.12;101339.41;2401366;28;45726;-75
2022/06/07 08:39:44;;;;;;;;;2.00;1.00;;;;;21.79;53.80;101344.53;2401589;28;45463;-75
2022/06/07 08:40:55;;;;;;;;;3.00;2.00;;;;;21.79;54.45;101338.34;2402507;28;46342;-75
2022/06/07 08:42:14;;;;;;;;;2.00;1.00;;;;;21.83;54.58;101336.31;2403025;28;44616;-75
2022/06/07 08:43:25;;;;;;;;;1.00;1.00;;;;;21.84;54.64;101335.31;2401578;28;46164;-75
2022/06/07 08:44:38;;;;;;;;;0.75;0.75;;;;;21.88;54.15;101343.06;2401808;28;44794;-75
2022/06/07 08:45:48;;;;;;;;;2.25;1.50;;;;;21.91;54.37;101332.13;2402703;28;45363;-75
2022/06/07 08:47:04;;;;;;;;;4.00;2.00;;;;;21.95;54.19;101342.63;2402238;28;45297;-75
2022/06/07 08:48:19;;;;;;;;;2.75;1.00;;;;;21.97;54.29;101338.88;2402285;28;46601;-75
2022/06/07 08:49:30;;;;;;;;;3.25;2.00;;;;;22.01;53.58;101337.69;2409163;28;45522;-75
2022/06/07 08:50:40;;;;;;;;;0.00;0.00;;;;;22.03;53.84;101332.19;2406983;28;46151;-75
2022/06/07 08:51:54;;;;;;;;;1.75;1.50;;;;;22.07;54.31;101338.19;2402146;28;44659;-75
2022/06/07 08:53:39;;;;;;;;;1.25;1.25;;;;;22.12;53.68;101339.59;2402095;28;45279;-75
2022/06/07 08:54:49;;;;;;;;;1.75;1.00;;;;;22.16;54.11;101342.88;2373315;28;45404;-75
2022/06/07 08:56:03;;;;;;;;;1.50;1.00;;;;;22.20;53.38;101338.16;2396961;28;45305;-75
2022/06/07 08:57:24;;;;;;;;;1.00;1.00;;;;;22.24;53.56;101343.19;2400942;28;45536;-75
2022/06/07 08:58:38;;;;;;;;;2.00;1.00;;;;;22.28;53.14;101348.28;2402431;28;45420;-75
2022/06/07 08:59:54;;;;;;;;;0.00;0.00;;;;;22.28;52.94;101340.25;2401226;28;45337;-75
2022/06/07 09:01:37;;;;;;;;;1.25;1.25;;;;;22.30;52.30;101341.03;2400698;28;45381;-75
2022/06/07 09:02:59;;;;;;;;;1.00;1.00;;;;;22.31;52.36;101342.72;2373759;28;45392;-75
2022/06/07 09:04:26;;;;;;;;;0.25;0.25;;;;;22.33;52.56;101340.78;2393431;28;45550;-75
2022/06/07 09:05:36;;;;;;;;;1.25;1.25;;;;;22.34;52.41;101339.81;2400923;28;45220;-75
2022/06/07 09:06:55;;;;;;;;;1.00;0.00;;;;;22.33;51.54;101338.09;2401327;28;46373;-75
2022/06/07 09:08:08;;;;;;;;;0.00;0.00;;;;;22.33;51.93;101338.09;2401164;28;45331;-75
2022/06/07 09:09:22;;;;;;;;;0.00;0.00;;;;;22.30;51.35;101338.34;2400633;28;45386;-75
2022/06/07 09:12:14;;;;;;;;;2.00;0.50;;;;;22.26;52.24;101345.72;2401776;28;45424;-75
2022/06/07 09:13:25;;;;;;;;;3.00;0.00;;;;;22.26;51.78;101351.94;2410644;28;45427;-76
2022/06/07 09:14:44;;;;;;;;;0.25;0.25;;;;;22.25;51.69;101342.19;2408595;28;46536;-75
2022/06/07 09:15:56;;;;;;;;;0.75;0.75;;;;;22.25;51.30;101347.53;2401694;28;45226;-75
2022/06/07 09:17:13;;;;;;;;;2.00;1.00;;;;;22.24;50.78;101345.00;2401495;28;47179;-75
2022/06/07 09:18:28;;;;;;;;;2.00;2.00;;;;;22.22;50.81;101339.75;2401696;28;45530;-75
2022/06/07 09:19:39;;;;;;;;;1.00;1.00;;;;;22.22;50.49;101344.25;2410577;28;47009;-75
2022/06/07 09:20:53;;;;;;;;;0.00;0.00;;;;;22.20;50.54;101343.53;2411028;28;45284;-75
2022/06/07 09:22:45;;;;;;;;;1.00;0.00;;;;;22.19;50.60;101345.34;2407205;28;46394;-75
2022/06/07 09:23:58;;;;;;;;;2.00;1.00;;;;;22.17;51.53;101343.72;2396844;28;45159;-75
2022/06/07 09:25:26;;;;;;;;;2.00;1.00;;;;;22.19;51.51;101339.13;2401229;28;47702;-75
2022/06/07 09:26:39;;;;;;;;;0.75;0.00;;;;;22.20;51.18;101335.50;2401702;28;45491;-75
2022/06/07 09:27:50;;;;;;;;;0.50;0.00;;;;;22.21;51.49;101340.72;2410643;28;47596;-75
2022/06/07 09:29:16;;;;;;;;;1.50;1.50;;;;;22.26;51.18;101335.88;2408628;28;45362;-75
2022/06/07 09:30:34;;;;;;;;;1.00;1.00;;;;;22.30;51.80;101336.50;2401974;28;45386;-75
2022/06/07 09:31:47;;;;;;;;;0.25;0.25;;;;;22.35;51.00;101326.31;2401554;28;45284;-75
2022/06/07 09:33:05;;;;;;;;;1.75;1.00;;;;;22.39;51.76;101329.63;2398495;28;45344;-75
2022/06/07 09:34:25;;;;;;;;;1.00;1.00;;;;;22.44;51.23;101327.47;2401108;28;45400;-75
2022/06/07 09:35:42;;;;;;;;;2.00;1.00;;;;;22.47;51.27;101329.88;2402051;28;46137;-75
2022/06/07 09:36:57;;;;;;;;;0.00;0.00;;;;;22.53;51.58;101336.63;2407153;28;45482;-75
2022/06/07 09:38:15;;;;;;;;;1.25;1.25;;;;;22.55;51.27;101323.94;2407070;28;46326;-75
2022/06/07 09:39:36;;;;;;;;;1.00;1.00;;;;;22.58;51.24;101328.22;2401921;28;44688;-75
2022/06/07 09:40:52;;;;;;;;;0.00;0.00;;;;;22.60;50.68;101331.63;2396019;28;45674;-75
2022/06/07 09:42:41;;;;;;;;;0.00;0.00;;;;;22.62;50.11;101324.34;2401637;28;45372;-75
2022/06/07 09:43:51;;;;;;;;;0.00;0.00;;;;;22.61;49.84;101328.00;2372720;28;47357;-75
2022/06/07 09:45:20;;;;;;;;;0.00;0.00;;;;;22.60;49.48;101329.81;2373415;28;45307;-75
2022/06/07 09:46:32;;;;;;;;;0.75;0.75;;;;;22.59;49.14;101324.59;2382965;28;45857;-75
2022/06/07 09:47:42;;;;;;;;;0.00;0.00;;;;;22.58;48.99;101318.38;2384177;28;44808;-75
2022/06/07 09:48:52;;;;;;;;;1.00;1.00;;;;;22.58;49.28;101321.06;2384156;28;46013;-75
2022/06/07 09:50:34;;;;;;;;;1.75;1.75;;;;;22.59;49.40;101327.28;2412757;28;44708;-75
2022/06/07 09:51:44;;;;;;;;;0.50;0.50;;;;;22.59;49.07;101322.75;2401176;28;47056;-75
2022/06/07 09:52:57;;;;;;;;;0.00;0.00;;;;;22.60;49.28;101327.16;2402841;28;45349;-75
2022/06/07 09:54:19;;;;;;;;;0.00;0.00;;;;;22.64;48.61;101326.91;2403494;28;45630;-75
2022/06/07 09:55:42;;;;;;;;;1.25;1.25;;;;;22.64;49.77;101316.22;2394524;28;45600;-75
2022/06/07 09:57:01;;;;;;;;;0.00;0.00;;;;;22.66;49.09;101325.84;2403686;28;46767;-75
2022/06/07 09:58:34;;;;;;;;;0.00;0.00;;;;;22.66;48.21;101331.19;2411357;28;44925;-75
2022/06/07 10:00:31;;;;;;;;;0.25;0.25;;;;;22.64;47.33;101326.91;2407001;28;46205;-75
2022/06/07 10:02:01;;;;;;;;;1.00;0.00;;;;;22.61;48.07;101319.97;2394615;28;45440;-75
2022/06/07 10:03:12;;;;;;;;;0.75;0.00;;;;;22.59;47.26;101320.06;2403582;28;47464;-75
2022/06/07 10:04:44;;;;;;;;;3.00;0.50;;;;;22.57;48.21;101307.78;2401607;28;45253;-75
2022/06/07 10:06:14;;;;;;;;;1.00;1.00;;;;;22.59;47.86;101313.88;2402332;28;46651;-75
2022/06/07 10:07:50;;;;;;;;;0.00;0.00;;;;;22.58;48.16;101302.31;2403016;28;45260;-75
2022/06/07 10:09:12;;;;;;;;;3.50;1.00;;;;;22.62;48.65;101316.31;2401950;28;45348;-75
2022/06/07 10:10:35;;;;;;;;;0.50;0.50;;;;;22.66;48.89;101330.34;2403262;28;45404;-75
2022/06/07 10:12:04;;;;;;;;;1.00;1.00;;;;;22.68;48.11;101323.03;2402750;28;46243;-75
2022/06/07 10:13:38;;;;;;;;;0.00;0.00;;;;;22.67;48.26;101318.63;2403109;28;45297;-75
2022/06/07 10:15:04;;;;;;;;;0.25;0.25;;;;;22.67;48.55;101310.59;2403265;28;45515;-75
2022/06/07 10:16:26;;;;;;;;;0.00;0.00;;;;;22.68;47.94;101323.88;2402869;28;45482;-75
2022/06/07 10:18:02;;;;;;;;;0.00;0.00;;;;;22.67;48.35;101316.81;2401540;28;46836;-75
2022/06/07 10:19:18;;;;;;;;;1.00;0.75;;;;;22.66;48.26;101324.97;2400763;28;45614;-75
2022/06/07 10:20:34;;;;;;;;;1.00;0.00;;;;;22.63;48.18;101314.47;2402032;28;48463;-75
2022/06/07 10:22:06;;;;;;;;;0.00;0.00;;;;;22.61;48.63;101319.97;2396005;28;45361;-75
2022/06/07 10:23:28;;;;;;;;;1.00;1.00;;;;;22.60;48.23;101305.72;2405242;28;47273;-75
2022/06/07 10:24:42;;;;;;;;;0.00;0.00;;;;;22.61;49.41;101309.25;2408235;28;47122;-75
2022/06/07 10:26:25;;;;;;;;;0.00;0.00;;;;;22.62;48.89;101308.25;2402604;28;46260;-75
2022/06/07 10:27:50;;;;;;;;;1.75;0.00;;;;;22.63;48.79;101315.34;2407788;28;45418;-76
2022/06/07 10:29:36;;;;;;;;;0.75;0.00;;;;;22.65;48.51;101309.84;2411288;28;47235;-76
2022/06/07 10:30:58;;;;;;;;;0.00;0.00;;;;;22.67;48.59;101299.88;2404892;28;45271;-75
2022/06/07 10:32:18;;;;;;;;;0.00;0.00;;;;;22.70;48.53;101297.88;2402191;28;46359;-75
2022/06/07 10:33:40;;;;;;;;;1.00;0.00;;;;;22.73;48.74;101288.75;2402420;28;45359;-75
2022/06/07 10:35:10;;;;;;;;;0.00;0.00;;;;;22.80;49.08;101289.97;2401813;28;46016;-75
2022/06/07 10:36:50;;;;;;;;;1.00;1.00;;;;;22.86;49.40;101304.75;2402354;28;45297;-75
2022/06/07 10:38:27;;;;;;;;;0.00;0.00;;;;;22.90;48.55;101306.19;2403160;28;45784;-75
2022/06/07 10:39:43;;;;;;;;;1.25;0.00;;;;;22.93;48.29;101303.28;2392918;28;45226;-75
2022/06/07 10:41:22;;;;;;;;;1.00;0.00;;;;;22.94;47.64;101301.44;2397957;28;45335;-75
2022/06/07 10:42:47;;;;;;;;;0.00;0.00;;;;;22.95;47.80;101292.44;2411648;28;45293;-75
2022/06/07 10:44:21;;;;;;;;;2.00;1.00;;;;;22.98;47.72;101296.72;2401908;28;46722;-75
2022/06/07 10:45:37;;;;;;;;;0.00;0.00;;;;;22.99;47.93;101293.06;2401853;28;45364;-75
2022/06/07 10:46:49;;;;;;;;;0.25;0.25;;;;;23.01;48.07;101300.03;2402614;28;46368;-75
2022/06/07 10:48:03;;;;;;;;;2.50;0.25;;;;;23.06;48.23;101288.94;2402195;28;45364;-75
2022/06/07 10:49:19;;;;;;;;;1.00;0.00;;;;;23.10;47.31;101298.44;2402453;28;46253;-75
2022/06/07 10:50:37;;;;;;;;;0.00;0.00;;;;;23.12;47.00;101292.94;2403211;28;45356;-75
2022/06/07 10:53:38;;;;;;;;;0.00;0.00;;;;;23.13;47.70;101298.22;2402016;28;45767;-75
2022/06/07 10:55:01;;;;;;;;;0.00;0.00;;;;;23.13;47.24;101295.53;2401604;28;48089;-75
2022/06/07 10:56:23;;;;;;;;;0.00;0.00;;;;;23.14;47.37;101291.84;2402726;28;45778;-75
2022/06/07 10:57:36;;;;;;;;;1.25;1.00;;;;;23.15;47.91;101292.72;2400252;28;46302;-75
2022/06/07 10:58:50;;;;;;;;;0.50;0.50;;;;;23.15;47.98;101298.94;2402731;28;45218;-75
2022/06/07 11:00:17;;;;;;;;;0.25;0.25;;;;;23.19;47.53;101304.06;2402598;28;45466;-75
2022/06/07 11:01:41;;;;;;;;;2.00;0.50;;;;;23.19;47.57;101291.50;2400190;28;45549;-75
2022/06/07 11:03:38;;;;;;;;;0.25;0.25;;;;;23.19;47.37;101296.84;2403026;28;45400;-75
2022/06/07 11:10:35;;;;;;;;;0.00;0.00;;;;;23.13;46.75;101302.72;2372587;28;45489;-75
2022/06/07 11:11:47;;;;;;;;;0.50;0.25;;;;;23.10;47.17;101303.78;2370109;28;45300;-75
2022/06/07 11:13:23;;;;;;;;;3.50;1.00;;;;;23.09;47.04;101309.28;2373922;28;45368;-75
2022/06/07 11:15:12;;;;;;;;;0.00;0.00;;;;;23.07;46.93;101314.75;2374141;28;45291;-75
2022/06/07 11:16:39;;;;;;;;;0.00;0.00;;;;;23.05;46.48;101303.31;2399869;28;46282;-75
2022/06/07 11:17:57;;;;;;;;;0.00;0.00;;;;;23.03;46.81;101298.06;2403401;28;45359;-75
2022/06/07 11:19:09;;;;;;;;;0.00;0.00;;;;;23.03;47.07;101307.94;2403292;28;45377;-75
2022/06/07 11:20:30;;;;;;;;;0.50;0.00;;;;;23.03;47.06;101310.59;2403315;28;45400;-75
2022/06/07 11:21:47;;;;;;;;;4.25;0.00;;;;;22.97;46.98;101301.22;2402306;28;45486;-75
2022/06/07 11:23:01;;;;;;;;;0.00;0.00;;;;;22.95;45.95;101307.66;2402731;28;45277;-75
2022/06/07 11:24:16;;;;;;;;;4.50;4.50;;;;;22.92;46.67;101309.59;2411765;28;46829;-75
2022/06/07 11:25:34;;;;;;;;;1.25;1.00;;;;;22.90;47.07;101300.84;2402210;28;44799;-75
2022/06/07 11:26:50;;;;;;;;;3.00;2.00;;;;;22.91;46.84;101304.38;2402298;28;47894;-75
2022/06/07 11:28:08;;;;;;;;;0.00;0.00;;;;;22.92;46.47;101298.88;2402304;28;45406;-75
2022/06/07 11:29:22;;;;;;;;;0.00;0.00;;;;;22.96;46.61;101301.34;2403364;28;45670;-75
2022/06/07 11:30:37;;;;;;;;;0.00;0.00;;;;;22.99;47.16;101309.16;2402582;28;44676;-75
2022/06/07 11:31:47;;;;;;;;;0.00;0.00;;;;;23.01;46.16;101296.47;2402501;28;45579;-75
2022/06/07 11:32:59;;;;;;;;;1.25;0.00;;;;;23.05;46.38;101297.94;2402996;28;45370;-75
2022/06/07 11:34:24;;;;;;;;;0.00;0.00;;;;;23.10;47.06;101301.13;2402532;28;46528;-75
2022/06/07 11:35:52;;;;;;;;;0.00;0.00;;;;;23.14;46.76;101332.06;2397895;28;45302;-75
2022/06/07 11:37:08;;;;;;;;;0.00;0.00;;;;;23.18;45.88;101326.47;2402652;28;45687;-75
2022/06/07 11:38:19;;;;;;;;;0.00;0.00;;;;;23.18;45.40;101316.59;2402624;28;45320;-75
2022/06/07 11:39:51;;;;;;;;;0.00;0.00;;;;;23.19;45.57;101309.44;2402306;28;45341;-75
2022/06/07 11:41:42;;;;;;;;;0.00;0.00;;;;;23.16;45.29;101314.03;2402558;28;45416;-75
2022/06/07 11:42:53;;;;;;;;;0.50;0.50;;;;;23.12;45.49;101301.84;2373934;28;45390;-75
2022/06/07 11:44:12;;;;;;;;;0.00;0.00;;;;;23.13;45.76;101294.66;2363924;29;45314;-75
2022/06/07 11:45:26;;;;;;;;;0.00;0.00;;;;;23.11;45.55;101302.81;2386552;28;45577;-75
2022/06/07 11:46:40;;;;;;;;;0.00;0.00;;;;;23.09;46.23;101299.41;2412166;28;44691;-75
2022/06/07 11:48:08;;;;;;;;;0.75;0.25;;;;;23.08;45.80;101296.84;2407028;28;46334;-75